createdAt,value
2019-04-29T00:01:31.084Z,101387.74
2019-04-29T00:03:59.749Z,101390.80
2019-04-29T00:06:28.428Z,101391.51
2019-04-29T00:08:57.184Z,101389.22
2019-04-29T00:11:29.083Z,101393.27
2019-04-29T00:13:58.307Z,101391.06
2019-04-29T00:16:34.349Z,101388.81
2019-04-29T00:19:10.200Z,101385.91
2019-04-29T00:21:40.454Z,101382.80
2019-04-29T00:24:09.064Z,101379.80
2019-04-29T00:26:37.799Z,101382.59
2019-04-29T00:29:06.430Z,101378.10
2019-04-29T00:31:35.158Z,101377.09
2019-04-29T00:34:03.765Z,101370.45
2019-04-29T00:36:36.720Z,101372.48
2019-04-29T00:39:23.282Z,101379.13
2019-04-29T00:41:59.282Z,101372.48
2019-04-29T00:44:29.697Z,101377.82
2019-04-29T00:46:58.319Z,101371.19
2019-04-29T00:49:27.324Z,101371.11
2019-04-29T00:51:58.928Z,101371.38
2019-04-29T00:54:37.873Z,101372.17
2019-04-29T00:57:06.475Z,101371.33
2019-04-29T00:59:35.086Z,101372.95
2019-04-29T01:02:04.206Z,101366.94
2019-04-29T01:04:32.768Z,101373.52
2019-04-29T01:07:01.311Z,101375.89
2019-04-29T01:09:30.967Z,101376.13
2019-04-29T01:11:59.590Z,101378.47
2019-04-29T01:14:31.134Z,101370.92
2019-04-29T01:16:59.693Z,101371.64
2019-04-29T01:19:28.319Z,101371.59
2019-04-29T01:21:56.931Z,101368.14
2019-04-29T01:24:27.900Z,101367.48
2019-04-29T01:26:58.158Z,101369.33
2019-04-29T01:29:32.300Z,101366.52
2019-04-29T01:32:00.914Z,101366.84
2019-04-29T01:34:42.841Z,101361.45
2019-04-29T01:37:11.454Z,101363.66
2019-04-29T01:39:53.784Z,101354.50
2019-04-29T01:42:23.976Z,101354.44
2019-04-29T01:44:52.542Z,101351.65
2019-04-29T01:47:21.091Z,101349.61
2019-04-29T01:49:49.654Z,101346.42
2019-04-29T01:52:18.263Z,101353.31
2019-04-29T01:54:47.222Z,101349.69
2019-04-29T01:57:15.893Z,101349.94
2019-04-29T01:59:44.502Z,101345.91
2019-04-29T02:02:13.215Z,101344.94
2019-04-29T02:04:41.825Z,101346.31
2019-04-29T02:07:10.442Z,101343.58
2019-04-29T02:09:56.364Z,101339.76
2019-04-29T02:12:26.833Z,101342.06
2019-04-29T02:14:55.742Z,101337.39
2019-04-29T02:17:24.459Z,101332.84
2019-04-29T02:19:53.467Z,101332.84
2019-04-29T02:22:29.457Z,101330.24
2019-04-29T02:25:01.274Z,101326.48
2019-04-29T02:27:29.852Z,101321.47
2019-04-29T02:29:58.481Z,101318.80
2019-04-29T02:32:27.189Z,101316.70
2019-04-29T02:34:58.793Z,101316.45
2019-04-29T02:37:30.499Z,101312.70
2019-04-29T02:40:06.147Z,101312.38
2019-04-29T02:42:51.487Z,101312.16
2019-04-29T02:45:21.686Z,101309.95
2019-04-29T02:47:50.244Z,101313.61
2019-04-29T02:50:19.581Z,101310.42
2019-04-29T02:52:48.585Z,101304.51
2019-04-29T02:55:18.919Z,101300.61
2019-04-29T02:57:55.330Z,101288.57
2019-04-29T03:00:27.764Z,101289.56
2019-04-29T03:02:58.098Z,101292.02
2019-04-29T03:05:31.607Z,101287.41
2019-04-29T03:08:00.651Z,101289.81
2019-04-29T03:10:29.260Z,101288.27
2019-04-29T03:12:57.878Z,101285.40
2019-04-29T03:15:31.063Z,101279.84
2019-04-29T03:18:00.007Z,101277.85
2019-04-29T03:20:36.500Z,101276.38
2019-04-29T03:23:09.611Z,101270.98
2019-04-29T03:25:38.499Z,101267.08
2019-04-29T03:28:07.155Z,101269.41
2019-04-29T03:30:35.764Z,101265.52
2019-04-29T03:33:04.798Z,101264.66
2019-04-29T03:35:33.350Z,101261.66
2019-04-29T03:38:01.929Z,101252.58
2019-04-29T03:40:30.486Z,101256.08
2019-04-29T03:42:59.043Z,101245.70
2019-04-29T03:45:27.609Z,101247.13
2019-04-29T03:47:58.029Z,101256.44
2019-04-29T03:50:29.655Z,101247.13
2019-04-29T03:52:58.371Z,101251.17
2019-04-29T03:55:38.947Z,101247.78
2019-04-29T03:58:00.665Z,101246.16
2019-04-29T04:00:29.425Z,101241.41
2019-04-29T04:03:17.814Z,101238.51
2019-04-29T04:05:48.061Z,101237.46
2019-04-29T04:08:21.491Z,101237.06
2019-04-29T04:10:50.114Z,101242.19
2019-04-29T04:13:18.725Z,101242.73
2019-04-29T04:15:47.273Z,101245.00
2019-04-29T04:18:29.465Z,101239.36
2019-04-29T04:20:58.386Z,101237.46
2019-04-29T04:23:26.959Z,101240.13
2019-04-29T04:25:57.669Z,101247.45
2019-04-29T04:28:28.539Z,101250.18
2019-04-29T04:30:58.713Z,101249.95
2019-04-29T04:33:28.795Z,101249.42
2019-04-29T04:36:00.357Z,101249.98
2019-04-29T04:38:28.937Z,101246.16
2019-04-29T04:41:02.218Z,101248.13
2019-04-29T04:43:30.786Z,101251.44
2019-04-29T04:45:59.343Z,101253.27
2019-04-29T04:48:29.578Z,101243.70
2019-04-29T04:51:00.862Z,101245.79
2019-04-29T04:53:29.477Z,101237.73
2019-04-29T04:56:01.763Z,101244.02
2019-04-29T04:58:30.760Z,101239.20
2019-04-29T05:00:59.333Z,101233.73
2019-04-29T05:03:30.011Z,101230.54
2019-04-29T05:05:58.619Z,101232.09
2019-04-29T05:08:28.708Z,101231.16
2019-04-29T05:10:57.925Z,101227.95
2019-04-29T05:13:28.388Z,101229.96
2019-04-29T05:15:59.191Z,101222.38
2019-04-29T05:18:27.767Z,101224.20
2019-04-29T05:20:56.599Z,101221.00
2019-04-29T05:23:25.198Z,101217.05
2019-04-29T05:25:53.759Z,101213.78
2019-04-29T05:28:22.419Z,101219.19
2019-04-29T05:30:50.978Z,101213.19
2019-04-29T05:33:19.637Z,101212.73
2019-04-29T05:35:49.884Z,101203.37
2019-04-29T05:38:29.563Z,101196.69
2019-04-29T05:41:01.462Z,101203.09
2019-04-29T05:43:33.456Z,101203.04
2019-04-29T05:46:09.839Z,101200.38
2019-04-29T05:48:38.458Z,101199.54
2019-04-29T05:51:08.705Z,101203.27
2019-04-29T05:53:41.823Z,101202.55
2019-04-29T05:56:10.440Z,101196.06
2019-04-29T05:58:39.601Z,101206.66
2019-04-29T06:01:10.047Z,101204.91
2019-04-29T06:03:39.839Z,101202.05
2019-04-29T06:06:08.491Z,101204.14
2019-04-29T06:08:39.260Z,101208.95
2019-04-29T06:11:07.455Z,101209.09
2019-04-29T06:13:36.066Z,101210.47
2019-04-29T06:16:04.690Z,101202.36
2019-04-29T06:18:33.379Z,101209.66
2019-04-29T06:21:09.097Z,101218.75
2019-04-29T06:23:32.673Z,101214.69
2019-04-29T06:26:01.270Z,101214.38
2019-04-29T06:28:29.899Z,101200.18
2019-04-29T06:30:58.907Z,101189.61
2019-04-29T06:33:31.038Z,101185.94
2019-04-29T06:35:59.632Z,101188.80
2019-04-29T06:38:31.016Z,101187.98
2019-04-29T06:40:59.934Z,101198.36
2019-04-29T06:43:30.352Z,101197.94
2019-04-29T06:45:58.824Z,101195.78
2019-04-29T06:48:28.954Z,101188.12
2019-04-29T06:51:00.747Z,101180.38
2019-04-29T06:53:29.301Z,101182.63
2019-04-29T06:55:57.858Z,101185.28
2019-04-29T06:58:26.499Z,101184.73
2019-04-29T07:01:01.147Z,101187.49
2019-04-29T07:03:26.639Z,101186.89
2019-04-29T07:05:55.240Z,101187.89
2019-04-29T07:08:23.796Z,101194.16
2019-04-29T07:10:55.952Z,101185.44
2019-04-29T07:13:24.452Z,101177.33
2019-04-29T07:15:53.340Z,101181.98
2019-04-29T07:18:21.937Z,101185.52
2019-04-29T07:20:50.652Z,101185.22
2019-04-29T07:23:19.205Z,101174.18
2019-04-29T07:25:47.787Z,101171.48
2019-04-29T07:28:18.486Z,101172.88
2019-04-29T07:31:01.101Z,101176.17
2019-04-29T07:33:22.078Z,101175.48
2019-04-29T07:35:48.291Z,101171.12
2019-04-29T07:38:18.009Z,101168.77
2019-04-29T07:40:46.633Z,101163.31
2019-04-29T07:43:15.188Z,101170.52
2019-04-29T07:45:51.841Z,101171.38
2019-04-29T07:48:20.453Z,101165.00
2019-04-29T07:50:48.982Z,101161.31
2019-04-29T07:53:21.867Z,101161.08
2019-04-29T07:55:48.030Z,101164.80
2019-04-29T07:58:16.639Z,101167.05
2019-04-29T08:00:48.752Z,101162.70
2019-04-29T08:03:15.602Z,101161.11
2019-04-29T08:05:44.226Z,101132.55
2019-04-29T08:08:16.796Z,101134.77
2019-04-29T08:10:54.067Z,101140.88
2019-04-29T08:13:14.750Z,101146.02
2019-04-29T08:15:43.656Z,101146.16
2019-04-29T08:18:16.258Z,101142.56
2019-04-29T08:20:42.961Z,101145.20
2019-04-29T08:23:11.614Z,101148.16
2019-04-29T08:25:40.243Z,101150.52
2019-04-29T08:28:08.863Z,101145.04
2019-04-29T08:30:37.483Z,101153.81
2019-04-29T08:33:07.489Z,101156.86
2019-04-29T08:35:37.074Z,101162.07
2019-04-29T08:38:06.721Z,101150.73
2019-04-29T08:40:35.435Z,101146.70
2019-04-29T08:43:22.374Z,101150.38
2019-04-29T08:45:52.825Z,101148.88
2019-04-29T08:48:21.435Z,101149.78
2019-04-29T08:50:49.996Z,101152.65
2019-04-29T08:53:18.977Z,101153.75
2019-04-29T08:55:47.997Z,101155.94
2019-04-29T08:58:16.608Z,101149.47
2019-04-29T09:00:45.634Z,101141.95
2019-04-29T09:03:14.282Z,101142.77
2019-04-29T09:05:46.224Z,101142.28
2019-04-29T09:08:13.948Z,101141.04
2019-04-29T09:10:42.543Z,101131.41
2019-04-29T09:13:11.100Z,101130.98
2019-04-29T09:15:39.761Z,101130.46
2019-04-29T09:18:10.819Z,101127.43
2019-04-29T09:20:39.037Z,101127.48
2019-04-29T09:23:12.377Z,101130.21
2019-04-29T09:25:42.637Z,101134.02
2019-04-29T09:28:17.952Z,101132.11
2019-04-29T09:30:43.656Z,101141.20
2019-04-29T09:33:13.110Z,101138.23
2019-04-29T09:35:42.531Z,101138.91
2019-04-29T09:38:11.224Z,101147.44
2019-04-29T09:40:45.668Z,101139.66
2019-04-29T09:43:32.919Z,101139.42
2019-04-29T09:46:18.760Z,101142.09
2019-04-29T09:48:47.453Z,101142.35
2019-04-29T09:51:18.105Z,101139.75
2019-04-29T09:53:46.638Z,101133.89
2019-04-29T09:56:15.223Z,101132.87
2019-04-29T09:58:43.784Z,101141.48
2019-04-29T10:01:19.119Z,101126.38
2019-04-29T10:04:01.413Z,101124.34
2019-04-29T10:06:31.618Z,101130.64
2019-04-29T10:09:00.222Z,101129.02
2019-04-29T10:11:28.944Z,101127.02
2019-04-29T10:14:00.116Z,101127.91
2019-04-29T10:16:39.477Z,101126.73
2019-04-29T10:19:25.190Z,101123.83
2019-04-29T10:21:54.206Z,101120.46
2019-04-29T10:24:23.033Z,101116.51
2019-04-29T10:26:52.175Z,101127.14
2019-04-29T10:29:25.608Z,101120.08
2019-04-29T10:31:53.284Z,101127.70
2019-04-29T10:34:21.854Z,101132.57
2019-04-29T10:36:52.304Z,101139.16
2019-04-29T10:39:28.700Z,101135.47
2019-04-29T10:42:00.392Z,101137.30
2019-04-29T10:44:46.554Z,101132.95
2019-04-29T10:47:33.176Z,101131.05
2019-04-29T10:50:03.763Z,101132.10
2019-04-29T10:52:34.493Z,101129.08
2019-04-29T10:55:02.827Z,101131.66
2019-04-29T10:57:31.438Z,101127.03
2019-04-29T11:00:21.727Z,101131.61
2019-04-29T11:02:51.188Z,101127.76
2019-04-29T11:05:30.254Z,101121.21
2019-04-29T11:08:02.625Z,101121.95
2019-04-29T11:10:32.893Z,101112.55
2019-04-29T11:13:01.543Z,101112.44
2019-04-29T11:15:34.980Z,101111.84
2019-04-29T11:18:04.578Z,101119.39
2019-04-29T11:20:33.575Z,101111.51
2019-04-29T11:23:16.453Z,101115.97
2019-04-29T11:26:00.563Z,101114.45
2019-04-29T11:28:30.172Z,101116.90
2019-04-29T11:30:59.242Z,101116.69
2019-04-29T11:33:30.988Z,101110.11
2019-04-29T11:36:03.833Z,101109.04
2019-04-29T11:38:33.007Z,101110.19
2019-04-29T11:41:01.938Z,101107.52
2019-04-29T11:43:31.186Z,101105.11
2019-04-29T11:46:00.029Z,101102.48
2019-04-29T11:48:28.689Z,101109.16
2019-04-29T11:51:01.816Z,101104.73
2019-04-29T11:53:30.392Z,101108.02
2019-04-29T11:55:59.136Z,101110.95
2019-04-29T11:58:44.760Z,101110.91
2019-04-29T12:01:39.273Z,101111.42
2019-04-29T12:04:13.960Z,101109.38
2019-04-29T12:06:43.173Z,101109.76
2019-04-29T12:09:12.196Z,101106.56
2019-04-29T12:11:40.804Z,101106.04
2019-04-29T12:14:14.301Z,101113.48
2019-04-29T12:16:47.252Z,101117.73
2019-04-29T12:19:23.134Z,101115.26
2019-04-29T12:21:51.848Z,101113.89
2019-04-29T12:24:21.161Z,101110.96
2019-04-29T12:26:49.882Z,101109.64
2019-04-29T12:29:19.649Z,101106.08
2019-04-29T12:32:01.981Z,101100.62
2019-04-29T12:34:32.229Z,101101.90
2019-04-29T12:37:00.952Z,101099.72
2019-04-29T12:39:47.908Z,101106.38
2019-04-29T12:42:35.768Z,101109.80
2019-04-29T12:45:26.830Z,101110.59
2019-04-29T12:47:57.602Z,101104.41
2019-04-29T12:50:26.488Z,101101.63
2019-04-29T12:52:57.014Z,101104.67
2019-04-29T12:55:46.073Z,101097.57
2019-04-29T12:58:12.764Z,101101.83
2019-04-29T13:00:48.042Z,101100.22
2019-04-29T13:03:30.975Z,101101.66
2019-04-29T13:06:02.643Z,101094.80
2019-04-29T13:08:41.739Z,101098.48
2019-04-29T13:11:10.451Z,101093.55
2019-04-29T13:13:39.163Z,101088.30
2019-04-29T13:16:27.657Z,101089.41
2019-04-29T13:19:11.576Z,101080.84
2019-04-29T13:21:31.327Z,101078.91
2019-04-29T13:24:13.394Z,101083.18
2019-04-29T13:26:33.297Z,101077.46
2019-04-29T13:29:01.605Z,101079.31
2019-04-29T13:31:38.418Z,101081.02
2019-04-29T13:34:14.565Z,101078.05
2019-04-29T13:36:33.236Z,101073.56
2019-04-29T13:39:01.888Z,101063.32
2019-04-29T13:41:30.495Z,101067.95
2019-04-29T13:44:05.639Z,101066.88
2019-04-29T13:46:33.069Z,101060.28
2019-04-29T13:49:13.461Z,101058.22
2019-04-29T13:51:41.135Z,101056.88
2019-04-29T13:54:09.767Z,101055.48
2019-04-29T13:56:54.803Z,101052.80
2019-04-29T13:59:12.422Z,101053.59
2019-04-29T14:01:58.359Z,101055.59
2019-04-29T14:04:24.264Z,101049.39
2019-04-29T14:06:56.640Z,101051.48
2019-04-29T14:09:19.030Z,101051.38
2019-04-29T14:12:01.094Z,101051.77
2019-04-29T14:14:22.740Z,101046.82
2019-04-29T14:16:48.780Z,101045.98
2019-04-29T14:19:20.449Z,101049.34
2019-04-29T14:21:47.771Z,101053.07
2019-04-29T14:24:16.325Z,101033.16
2019-04-29T14:26:47.832Z,101046.31
2019-04-29T14:29:15.716Z,101044.44
2019-04-29T14:31:45.979Z,101037.70
2019-04-29T14:34:20.493Z,101044.36
2019-04-29T14:36:49.245Z,101044.83
2019-04-29T14:39:36.183Z,101042.96
2019-04-29T14:41:50.907Z,101045.55
2019-04-29T14:44:33.342Z,101045.15
2019-04-29T14:47:03.704Z,101042.66
2019-04-29T14:49:39.738Z,101041.02
2019-04-29T14:52:08.169Z,101046.05
2019-04-29T14:54:41.876Z,101036.91
2019-04-29T14:57:09.212Z,101038.20
2019-04-29T14:59:38.239Z,101040.67
2019-04-29T15:02:17.146Z,101042.43
2019-04-29T15:04:45.373Z,101037.69
2019-04-29T15:07:14.359Z,101039.38
2019-04-29T15:09:58.040Z,101042.25
2019-04-29T15:12:27.992Z,101030.27
2019-04-29T15:15:14.142Z,101024.72
2019-04-29T15:17:47.203Z,101025.59
2019-04-29T15:20:17.644Z,101031.05
2019-04-29T15:22:46.698Z,101028.12
2019-04-29T15:25:16.741Z,101029.84
2019-04-29T15:27:45.967Z,101026.44
2019-04-29T15:30:15.395Z,101023.06
2019-04-29T15:32:43.969Z,101026.87
2019-04-29T15:35:13.038Z,101021.02
2019-04-29T15:37:41.647Z,101027.16
2019-04-29T15:40:10.593Z,101022.58
2019-04-29T15:42:43.255Z,101021.00
2019-04-29T15:45:09.911Z,101023.16
2019-04-29T15:47:41.572Z,101021.84
2019-04-29T15:50:18.226Z,101020.77
2019-04-29T15:52:39.484Z,101024.49
2019-04-29T15:55:08.542Z,101017.55
2019-04-29T15:57:37.137Z,101018.84
2019-04-29T16:00:21.463Z,101017.94
2019-04-29T16:02:41.499Z,101019.35
2019-04-29T16:05:17.192Z,101017.09
2019-04-29T16:07:55.793Z,101018.97
2019-04-29T16:10:41.562Z,101023.76
2019-04-29T16:13:13.933Z,101016.61
2019-04-29T16:15:42.558Z,101019.33
2019-04-29T16:18:14.745Z,101010.95
2019-04-29T16:20:42.443Z,101007.63
2019-04-29T16:23:11.042Z,101005.04
2019-04-29T16:25:40.826Z,101004.41
2019-04-29T16:28:09.861Z,101013.86
2019-04-29T16:30:38.565Z,101012.66
2019-04-29T16:33:14.086Z,101005.79
2019-04-29T16:35:38.045Z,101007.34
2019-04-29T16:38:11.769Z,101008.83
2019-04-29T16:40:39.479Z,101014.05
2019-04-29T16:43:13.318Z,101014.05
2019-04-29T16:45:44.160Z,101015.44
2019-04-29T16:48:13.908Z,101016.55
2019-04-29T16:50:42.923Z,101019.99
2019-04-29T16:53:11.560Z,101010.02
2019-04-29T16:58:17.714Z,101011.83
2019-04-29T17:00:46.555Z,101015.41
2019-04-29T17:03:11.593Z,101011.49
2019-04-29T17:05:40.222Z,101008.98
2019-04-29T17:08:09.326Z,101015.49
2019-04-29T17:10:59.373Z,101020.02
2019-04-29T17:13:29.541Z,101022.46
2019-04-29T17:16:01.652Z,101025.09
2019-04-29T17:18:30.364Z,101023.61
2019-04-29T17:21:04.617Z,101034.88
2019-04-29T17:23:29.458Z,101033.93
2019-04-29T17:25:59.632Z,101029.41
2019-04-29T17:28:35.130Z,101044.67
2019-04-29T17:31:23.976Z,101041.14
2019-04-29T17:33:57.440Z,101043.42
2019-04-29T17:35:14.349Z,101013.09
2019-04-29T17:36:26.392Z,101046.77
2019-04-29T17:38:55.881Z,101041.64
2019-04-29T17:41:24.539Z,101046.69
2019-04-29T17:43:57.625Z,101051.80
2019-04-29T17:46:27.837Z,101049.71
2019-04-29T17:49:13.148Z,101044.64
2019-04-29T17:51:42.200Z,101065.31
2019-04-29T17:54:15.875Z,101057.09
2019-04-29T17:57:25.070Z,101065.30
2019-04-29T17:59:52.660Z,101066.78
2019-04-29T18:02:39.407Z,101081.06
2019-04-29T18:05:18.660Z,101075.98
2019-04-29T18:07:51.885Z,101084.39
2019-04-29T18:10:29.517Z,101075.00
2019-04-29T18:12:57.115Z,101086.01
2019-04-29T18:15:27.365Z,101082.52
2019-04-29T18:17:56.290Z,101089.50
2019-04-29T18:20:35.817Z,101099.91
2019-04-29T18:23:15.830Z,101100.44
2019-04-29T18:26:00.582Z,101104.30
2019-04-29T18:28:29.303Z,101107.16
2019-04-29T18:30:59.869Z,101111.19
2019-04-29T18:33:30.400Z,101109.30
2019-04-29T18:36:04.247Z,101120.20
2019-04-29T18:38:29.186Z,101123.25
2019-04-29T18:40:57.813Z,101133.05
2019-04-29T18:43:26.837Z,101131.09
2019-04-29T18:45:58.803Z,101127.41
2019-04-29T18:48:27.965Z,101136.30
2019-04-29T18:50:57.108Z,101131.96
2019-04-29T18:53:26.564Z,101131.08
2019-04-29T18:55:57.017Z,101136.38
2019-04-29T18:58:28.059Z,101141.32
2019-04-29T19:00:59.445Z,101145.33
2019-04-29T19:03:33.159Z,101144.27
2019-04-29T19:06:10.264Z,101150.27
2019-04-29T19:08:35.809Z,101156.02
2019-04-29T19:11:06.863Z,101158.86
2019-04-29T19:13:36.248Z,101158.83
2019-04-29T19:16:10.320Z,101159.03
2019-04-29T19:18:35.628Z,101161.88
2019-04-29T19:21:04.253Z,101161.20
2019-04-29T19:23:33.055Z,101162.91
2019-04-29T19:26:01.675Z,101169.95
2019-04-29T19:28:32.405Z,101162.30
2019-04-29T19:31:03.224Z,101173.56
2019-04-29T19:33:37.625Z,101177.08
2019-04-29T19:36:01.440Z,101183.84
2019-04-29T19:38:30.055Z,101179.21
2019-04-29T19:40:58.680Z,101173.56
2019-04-29T19:43:28.953Z,101175.54
2019-04-29T19:45:57.767Z,101174.27
2019-04-29T19:48:27.246Z,101175.94
2019-04-29T19:51:14.603Z,101180.47
2019-04-29T19:53:30.154Z,101179.22
2019-04-29T19:56:04.092Z,101179.52
2019-04-29T19:58:31.625Z,101186.22
2019-04-29T20:01:10.851Z,101188.68
2019-04-29T20:03:37.926Z,101197.67
2019-04-29T20:06:24.831Z,101187.78
2019-04-29T20:08:53.896Z,101194.42
2019-04-29T20:11:18.670Z,101197.09
2019-04-29T20:14:01.302Z,101201.27
2019-04-29T20:16:24.978Z,101198.47
2019-04-29T20:19:02.521Z,101204.77
2019-04-29T20:21:36.276Z,101200.43
2019-04-29T20:24:09.651Z,101211.75
2019-04-29T20:26:36.061Z,101218.50
2019-04-29T20:29:07.305Z,101212.98
2019-04-29T20:31:38.852Z,101215.91
2019-04-29T20:34:06.506Z,101212.27
2019-04-29T20:36:41.742Z,101217.59
2019-04-29T20:39:10.988Z,101220.76
2019-04-29T20:41:41.970Z,101221.27
2019-04-29T20:44:09.449Z,101221.27
2019-04-29T20:46:45.517Z,101218.98
2019-04-29T20:49:08.810Z,101218.27
2019-04-29T20:51:48.980Z,101220.00
2019-04-29T20:54:15.943Z,101224.66
2019-04-29T20:56:40.082Z,101223.64
2019-04-29T20:59:12.524Z,101233.05
2019-04-29T21:01:43.206Z,101233.84
2019-04-29T21:04:11.283Z,101229.90
2019-04-29T21:06:56.558Z,101228.27
2019-04-29T21:09:10.572Z,101225.11
2019-04-29T21:11:45.620Z,101229.09
2019-04-29T21:14:18.494Z,101226.17
2019-04-29T21:16:51.717Z,101225.34
2019-04-29T21:19:20.326Z,101227.91
2019-04-29T21:21:49.041Z,101228.99
2019-04-29T21:24:18.758Z,101227.42
2019-04-29T21:26:47.605Z,101229.66
2019-04-29T21:29:19.466Z,101231.17
2019-04-29T21:31:50.584Z,101226.45
2019-04-29T21:34:17.772Z,101232.19
2019-04-29T21:36:51.179Z,101247.52
2019-04-29T21:39:27.377Z,101245.52
2019-04-29T21:41:59.981Z,101243.08
2019-04-29T21:44:29.184Z,101238.34
2019-04-29T21:47:03.779Z,101243.68
2019-04-29T21:49:29.823Z,101242.38
2019-04-29T21:51:58.528Z,101245.38
2019-04-29T21:54:28.684Z,101251.55
2019-04-29T21:56:58.755Z,101247.32
2019-04-29T21:59:29.292Z,101246.41
2019-04-29T22:01:59.409Z,101248.76
2019-04-29T22:04:32.856Z,101245.38
2019-04-29T22:07:04.854Z,101245.91
2019-04-29T22:09:36.149Z,101243.67
2019-04-29T22:12:01.127Z,101248.09
2019-04-29T22:14:29.748Z,101251.32
2019-04-29T22:16:58.741Z,101247.63
2019-04-29T22:19:28.892Z,101249.91
2019-04-29T22:22:01.666Z,101245.12
2019-04-29T22:24:30.692Z,101252.09
2019-04-29T22:27:04.031Z,101248.65
2019-04-29T22:29:32.007Z,101251.59
2019-04-29T22:32:00.307Z,101246.51
2019-04-29T22:34:28.884Z,101247.80
2019-04-29T22:37:01.269Z,101246.59
2019-04-29T22:39:30.195Z,101248.34
2019-04-29T22:42:12.747Z,101246.25
2019-04-29T22:44:41.705Z,101251.02
2019-04-29T22:47:10.378Z,101248.91
2019-04-29T22:49:39.000Z,101248.11
2019-04-29T22:52:09.031Z,101246.02
2019-04-29T22:54:37.920Z,101247.34
2019-04-29T22:57:06.790Z,101240.60
2019-04-29T22:59:35.502Z,101238.81
2019-04-29T23:02:05.777Z,101252.56
2019-04-29T23:04:35.141Z,101248.77
2019-04-29T23:07:03.786Z,101249.34
2019-04-29T23:09:32.355Z,101245.73
2019-04-29T23:12:00.960Z,101244.08
2019-04-29T23:14:29.618Z,101236.44
2019-04-29T23:17:01.213Z,101240.81
2019-04-29T23:19:30.165Z,101235.44
2019-04-29T23:22:06.628Z,101235.44
2019-04-29T23:24:46.652Z,101239.67
2019-04-29T23:27:25.910Z,101233.66
2019-04-29T23:29:54.566Z,101236.73
2019-04-29T23:32:25.254Z,101236.73
2019-04-29T23:34:55.033Z,101233.77
2019-04-29T23:37:29.065Z,101233.77
2019-04-29T23:39:55.749Z,101221.36
2019-04-29T23:42:26.187Z,101218.94
2019-04-29T23:44:57.079Z,101215.38
2019-04-29T23:47:25.811Z,101215.38
2019-04-29T23:49:57.680Z,101215.09
2019-04-29T23:52:28.613Z,101212.91
2019-04-29T23:55:01.599Z,101212.46
2019-04-29T23:57:35.854Z,101207.08
